North Branch, Texas
Current Conditions -  °F | °C
As of 8:57 PM on Tuesday 25 Nov 2014 (Local Time) from KADS Reporting Station
Clear Clear  
Wind Chill: 50°   Ceiling: Unl
Heat Index: 50°   Visibility: 13mi
Dew Point: 28°   Wind: 5mph
Humidity: 43%   Direction: 150°SSE
Pressure: 30.14"   Gusts: NA
Location:  32.9366°N, 96.838°W
Report Text: KADS 260257Z 15004KT 13SM SKC 10/M02 A3014
Loading
Personal Weather Stations






























Interactive Weather Map New forecast layout! Learn more

10-Day Weather Forecast

Advertisements
Track Severe Weather on mobile